createdAt,value
2018-06-09T00:00:52.342Z,44.62
2018-06-09T00:01:52.281Z,44.50
2018-06-09T00:02:52.230Z,44.70
2018-06-09T00:03:52.173Z,44.89
2018-06-09T00:04:52.118Z,44.89
2018-06-09T00:05:52.062Z,45.01
2018-06-09T00:06:52.003Z,45.08
2018-06-09T00:07:51.947Z,44.91
2018-06-09T00:08:51.891Z,45.18
2018-06-09T00:09:51.838Z,45.68
2018-06-09T00:10:51.779Z,45.47
2018-06-09T00:11:51.730Z,45.28
2018-06-09T00:12:51.668Z,45.28
2018-06-09T00:13:51.617Z,45.18
2018-06-09T00:14:51.559Z,45.47
2018-06-09T00:15:51.503Z,45.66
2018-06-09T00:16:51.446Z,45.66
2018-06-09T00:17:51.396Z,46.15
2018-06-09T00:18:51.333Z,46.34
2018-06-09T00:19:51.277Z,46.15
2018-06-09T00:20:51.220Z,46.15
2018-06-09T00:21:51.165Z,46.15
2018-06-09T00:22:51.110Z,45.95
2018-06-09T00:23:51.058Z,45.86
2018-06-09T00:24:51.000Z,45.86
2018-06-09T00:25:50.940Z,45.66
2018-06-09T00:26:50.892Z,46.15
2018-06-09T00:27:50.836Z,46.15
2018-06-09T00:28:50.775Z,46.05
2018-06-09T00:29:50.720Z,46.25
2018-06-09T00:30:50.663Z,46.25
2018-06-09T00:31:50.600Z,45.95
2018-06-09T00:32:50.549Z,46.15
2018-06-09T00:33:50.490Z,46.34
2018-06-09T00:34:50.436Z,46.63
2018-06-09T00:35:50.383Z,46.73
2018-06-09T00:36:50.326Z,46.63
2018-06-09T00:37:50.269Z,47.41
2018-06-09T00:38:50.213Z,46.73
2018-06-09T00:39:50.154Z,46.73
2018-06-09T00:40:50.103Z,47.11
2018-06-09T00:41:50.043Z,47.21
2018-06-09T00:42:49.988Z,47.28
2018-06-09T00:43:49.932Z,47.31
2018-06-09T00:44:49.878Z,47.11
2018-06-09T00:45:49.815Z,47.38
2018-06-09T00:46:49.764Z,47.09
2018-06-09T00:47:49.703Z,47.58
2018-06-09T00:48:49.656Z,47.58
2018-06-09T00:49:49.596Z,47.67
2018-06-09T00:50:49.537Z,48.25
2018-06-09T00:51:49.484Z,48.74
2018-06-09T00:52:49.422Z,48.54
2018-06-09T00:53:49.369Z,48.44
2018-06-09T00:54:49.313Z,48.35
2018-06-09T00:55:49.263Z,48.25
2018-06-09T00:56:49.198Z,48.74
2018-06-09T00:57:49.147Z,48.74
2018-06-09T00:58:49.088Z,48.83
2018-06-09T00:59:49.039Z,49.00
2018-06-09T01:00:48.974Z,49.29
2018-06-09T01:01:48.925Z,49.51
2018-06-09T01:02:48.862Z,49.41
2018-06-09T01:03:48.843Z,49.22
2018-06-09T01:04:48.753Z,49.51
2018-06-09T01:05:48.693Z,49.70
2018-06-09T01:06:48.637Z,49.80
2018-06-09T01:07:48.580Z,49.87
2018-06-09T01:08:48.521Z,50.07
2018-06-09T01:09:48.473Z,50.28
2018-06-09T01:10:48.410Z,49.97
2018-06-09T01:11:48.352Z,49.99
2018-06-09T01:12:48.297Z,50.07
2018-06-09T01:13:48.241Z,50.18
2018-06-09T01:14:48.185Z,50.16
2018-06-09T01:15:48.122Z,50.26
2018-06-09T01:16:48.073Z,50.26
2018-06-09T01:17:48.015Z,50.07
2018-06-09T01:18:47.961Z,50.07
2018-06-09T01:19:47.905Z,50.07
2018-06-09T01:20:47.851Z,50.55
2018-06-09T01:21:47.801Z,50.35
2018-06-09T01:22:47.733Z,50.35
2018-06-09T01:23:47.674Z,50.84
2018-06-09T01:24:47.618Z,50.93
2018-06-09T01:25:47.565Z,50.55
2018-06-09T01:26:47.515Z,50.65
2018-06-09T01:27:47.452Z,51.03
2018-06-09T01:28:47.393Z,50.84
2018-06-09T01:29:47.346Z,50.74
2018-06-09T01:30:47.281Z,50.65
2018-06-09T01:31:47.225Z,50.93
2018-06-09T01:32:47.169Z,51.13
2018-06-09T01:33:47.117Z,51.13
2018-06-09T01:34:47.053Z,51.42
2018-06-09T01:35:46.995Z,51.51
2018-06-09T01:36:46.940Z,51.13
2018-06-09T01:37:46.881Z,51.51
2018-06-09T01:38:46.828Z,51.13
2018-06-09T01:39:46.773Z,51.51
2018-06-09T01:40:46.719Z,51.71
2018-06-09T01:41:46.659Z,51.71
2018-06-09T01:42:46.599Z,51.51
2018-06-09T01:43:46.542Z,51.90
2018-06-09T01:44:46.489Z,51.90
2018-06-09T01:45:46.430Z,51.90
2018-06-09T01:46:46.373Z,51.71
2018-06-09T01:47:46.315Z,51.71
2018-06-09T01:48:46.260Z,51.81
2018-06-09T01:49:46.199Z,51.42
2018-06-09T01:50:46.151Z,51.23
2018-06-09T01:51:46.090Z,51.71
2018-06-09T01:52:46.034Z,51.71
2018-06-09T01:53:45.975Z,51.81
2018-06-09T01:54:45.917Z,51.90
2018-06-09T01:55:45.857Z,51.81
2018-06-09T01:56:45.803Z,51.90
2018-06-09T01:57:45.748Z,51.90
2018-06-09T01:58:45.695Z,51.61
2018-06-09T01:59:45.634Z,51.81
2018-06-09T02:00:45.578Z,51.71
2018-06-09T02:01:45.523Z,51.71
2018-06-09T02:02:45.468Z,51.81
2018-06-09T02:03:45.406Z,51.81
2018-06-09T02:04:45.348Z,51.71
2018-06-09T02:05:45.291Z,52.19
2018-06-09T02:06:45.237Z,51.90
2018-06-09T02:07:45.181Z,51.61
2018-06-09T02:08:45.124Z,52.48
2018-06-09T02:09:45.072Z,52.48
2018-06-09T02:10:45.011Z,52.67
2018-06-09T02:11:44.951Z,52.67
2018-06-09T02:12:44.898Z,52.55
2018-06-09T02:13:44.837Z,52.55
2018-06-09T02:14:44.783Z,52.26
2018-06-09T02:15:44.723Z,52.65
2018-06-09T02:16:44.670Z,52.17
2018-06-09T02:17:44.618Z,52.75
2018-06-09T02:18:44.552Z,53.03
2018-06-09T02:19:44.497Z,53.13
2018-06-09T02:20:44.441Z,53.49
2018-06-09T02:21:44.382Z,53.71
2018-06-09T02:22:44.329Z,54.00
2018-06-09T02:23:44.272Z,53.42
2018-06-09T02:24:44.212Z,53.42
2018-06-09T02:25:44.157Z,53.71
2018-06-09T02:26:44.100Z,53.71
2018-06-09T02:27:44.037Z,53.71
2018-06-09T02:28:43.985Z,53.81
2018-06-09T02:29:43.927Z,54.49
2018-06-09T02:30:43.874Z,54.10
2018-06-09T02:31:43.817Z,54.19
2018-06-09T02:32:43.759Z,54.39
2018-06-09T02:33:43.702Z,54.29
2018-06-09T02:34:43.646Z,53.91
2018-06-09T02:35:43.590Z,54.49
2018-06-09T02:36:43.530Z,54.39
2018-06-09T02:37:43.475Z,54.19
2018-06-09T02:38:43.416Z,54.46
2018-06-09T02:39:43.361Z,54.68
2018-06-09T02:40:43.300Z,54.49
2018-06-09T02:41:43.246Z,54.77
2018-06-09T02:42:43.192Z,54.39
2018-06-09T02:43:43.134Z,54.39
2018-06-09T02:44:43.080Z,54.58
2018-06-09T02:45:43.022Z,54.39
2018-06-09T02:46:42.961Z,54.58
2018-06-09T02:47:42.909Z,54.68
2018-06-09T02:48:42.847Z,55.04
2018-06-09T02:49:42.794Z,55.13
2018-06-09T02:50:42.730Z,54.84
2018-06-09T02:51:42.674Z,54.77
2018-06-09T02:52:42.618Z,54.55
2018-06-09T02:53:42.561Z,55.35
2018-06-09T02:54:42.505Z,55.13
2018-06-09T02:55:42.447Z,55.16
2018-06-09T02:56:42.391Z,54.94
2018-06-09T02:57:42.335Z,54.84
2018-06-09T02:58:42.275Z,54.84
2018-06-09T02:59:42.217Z,54.75
2018-06-09T03:00:42.159Z,55.13
2018-06-09T03:01:42.104Z,55.04
2018-06-09T03:02:42.069Z,55.33
2018-06-09T03:03:41.995Z,55.23
2018-06-09T03:04:41.932Z,55.04
2018-06-09T03:05:41.876Z,55.04
2018-06-09T03:06:41.818Z,54.84
2018-06-09T03:07:41.760Z,55.13
2018-06-09T03:08:41.706Z,55.62
2018-06-09T03:09:41.648Z,55.42
2018-06-09T03:10:41.591Z,55.81
2018-06-09T03:11:41.534Z,55.52
2018-06-09T03:12:41.473Z,55.90
2018-06-09T03:13:41.417Z,55.81
2018-06-09T03:14:41.362Z,55.90
2018-06-09T03:15:41.304Z,55.62
2018-06-09T03:16:41.246Z,56.20
2018-06-09T03:17:41.192Z,55.90
2018-06-09T03:18:41.131Z,56.10
2018-06-09T03:19:41.072Z,56.68
2018-06-09T03:20:41.019Z,56.77
2018-06-09T03:21:40.962Z,56.58
2018-06-09T03:22:40.903Z,56.58
2018-06-09T03:23:40.844Z,56.58
2018-06-09T03:24:40.788Z,56.96
2018-06-09T03:25:40.730Z,56.77
2018-06-09T03:26:40.676Z,57.06
2018-06-09T03:27:40.627Z,57.06
2018-06-09T03:28:40.558Z,56.39
2018-06-09T03:29:40.502Z,56.77
2018-06-09T03:30:40.447Z,57.04
2018-06-09T03:31:40.386Z,56.96
2018-06-09T03:32:40.335Z,56.77
2018-06-09T03:33:40.272Z,56.87
2018-06-09T03:34:40.216Z,56.48
2018-06-09T03:35:40.159Z,56.65
2018-06-09T03:36:40.097Z,56.96
2018-06-09T03:37:40.044Z,56.87
2018-06-09T03:38:39.989Z,56.87
2018-06-09T03:39:39.931Z,56.87
2018-06-09T03:40:39.870Z,56.94
2018-06-09T03:41:39.814Z,57.04
2018-06-09T03:42:39.758Z,56.74
2018-06-09T03:43:39.699Z,57.14
2018-06-09T03:44:39.643Z,56.84
2018-06-09T03:45:39.585Z,56.94
2018-06-09T03:46:39.532Z,56.56
2018-06-09T03:47:39.469Z,56.94
2018-06-09T03:48:39.414Z,56.94
2018-06-09T03:49:39.359Z,56.65
2018-06-09T03:50:39.298Z,56.94
2018-06-09T03:51:39.241Z,56.74
2018-06-09T03:52:39.191Z,56.74
2018-06-09T03:53:39.129Z,56.65
2018-06-09T03:54:39.070Z,56.84
2018-06-09T03:55:39.011Z,56.84
2018-06-09T03:56:38.953Z,56.94
2018-06-09T03:57:38.896Z,56.84
2018-06-09T03:58:38.841Z,57.06
2018-06-09T03:59:38.786Z,56.84
2018-06-09T04:00:38.722Z,56.74
2018-06-09T04:01:38.672Z,56.84
2018-06-09T04:02:38.610Z,56.74
2018-06-09T04:03:38.549Z,57.04
2018-06-09T04:04:38.500Z,56.84
2018-06-09T04:05:38.437Z,56.84
2018-06-09T04:06:38.381Z,57.04
2018-06-09T04:07:38.325Z,56.84
2018-06-09T04:08:38.261Z,57.14
2018-06-09T04:09:38.210Z,57.23
2018-06-09T04:10:38.152Z,56.77
2018-06-09T04:11:38.096Z,56.96
2018-06-09T04:12:38.037Z,57.32
2018-06-09T04:13:37.980Z,57.35
2018-06-09T04:14:37.923Z,57.35
2018-06-09T04:15:37.867Z,57.26
2018-06-09T04:16:37.809Z,57.35
2018-06-09T04:17:37.750Z,56.96
2018-06-09T04:18:37.692Z,56.87
2018-06-09T04:19:37.638Z,56.77
2018-06-09T04:20:37.614Z,57.35
2018-06-09T04:21:37.522Z,56.87
2018-06-09T04:22:37.465Z,57.35
2018-06-09T04:23:37.404Z,56.96
2018-06-09T04:24:37.347Z,57.06
2018-06-09T04:25:37.300Z,57.74
2018-06-09T04:26:37.233Z,57.57
2018-06-09T04:27:37.179Z,58.12
2018-06-09T04:28:37.119Z,58.03
2018-06-09T04:29:37.063Z,57.84
2018-06-09T04:30:37.006Z,57.87
2018-06-09T04:31:36.958Z,58.03
2018-06-09T04:32:36.895Z,58.45
2018-06-09T04:33:36.849Z,58.45
2018-06-09T04:34:36.785Z,58.45
2018-06-09T04:35:36.721Z,58.15
2018-06-09T04:36:36.664Z,58.45
2018-06-09T04:37:36.606Z,58.22
2018-06-09T04:38:36.550Z,58.42
2018-06-09T04:39:36.499Z,58.51
2018-06-09T04:40:36.434Z,58.51
2018-06-09T04:41:36.378Z,58.45
2018-06-09T04:42:36.322Z,58.54
2018-06-09T04:43:36.267Z,58.45
2018-06-09T04:44:36.214Z,58.54
2018-06-09T04:45:36.150Z,58.54
2018-06-09T04:46:36.095Z,58.54
2018-06-09T04:47:36.036Z,58.54
2018-06-09T04:48:35.979Z,58.93
2018-06-09T04:49:35.922Z,58.45
2018-06-09T04:50:35.867Z,58.73
2018-06-09T04:51:35.812Z,58.54
2018-06-09T04:52:35.751Z,58.54
2018-06-09T04:53:35.697Z,58.64
2018-06-09T04:54:35.636Z,58.54
2018-06-09T04:55:35.577Z,58.35
2018-06-09T04:56:35.524Z,58.54
2018-06-09T04:57:35.480Z,58.54
2018-06-09T04:58:35.409Z,57.89
2018-06-09T04:59:35.351Z,58.57
2018-06-09T05:00:35.292Z,58.28
2018-06-09T05:01:35.236Z,58.18
2018-06-09T05:02:35.184Z,57.99
2018-06-09T05:03:35.131Z,58.18
2018-06-09T05:04:35.080Z,57.15
2018-06-09T05:05:35.014Z,56.67
2018-06-09T05:06:34.960Z,56.88
2018-06-09T05:07:34.897Z,55.68
2018-06-09T05:08:34.843Z,54.74
2018-06-09T05:09:34.788Z,54.38
2018-06-09T05:10:34.734Z,53.67
2018-06-09T05:11:34.672Z,53.87
2018-06-09T05:12:34.614Z,54.35
2018-06-09T05:13:34.587Z,54.81
2018-06-09T05:14:34.509Z,55.20
2018-06-09T05:15:34.449Z,55.20
2018-06-09T05:16:34.391Z,54.91
2018-06-09T05:17:34.331Z,54.98
2018-06-09T05:18:34.277Z,55.20
2018-06-09T05:19:34.232Z,54.62
2018-06-09T05:20:34.166Z,53.22
2018-06-09T05:21:34.106Z,51.91
2018-06-09T05:22:34.052Z,50.80
2018-06-09T05:23:33.996Z,49.17
2018-06-09T05:24:33.940Z,48.51
2018-06-09T05:25:33.883Z,48.97
2018-06-09T05:26:33.828Z,49.71
2018-06-09T05:27:33.771Z,50.26
2018-06-09T05:28:33.716Z,50.99
2018-06-09T05:29:33.661Z,52.12
2018-06-09T05:30:33.604Z,52.68
2018-06-09T05:31:33.547Z,52.29
2018-06-09T05:32:33.492Z,53.14
2018-06-09T05:33:33.437Z,52.68
2018-06-09T05:34:33.386Z,52.36
2018-06-09T05:35:33.330Z,52.56
2018-06-09T05:36:33.274Z,52.66
2018-06-09T05:37:33.213Z,51.88
2018-06-09T05:38:33.157Z,51.62
2018-06-09T05:39:33.105Z,51.32
2018-06-09T05:40:33.048Z,51.32
2018-06-09T05:41:32.988Z,50.94
2018-06-09T05:42:32.941Z,51.13
2018-06-09T05:43:32.877Z,51.13
2018-06-09T05:44:32.826Z,50.96
2018-06-09T05:45:32.769Z,50.67
2018-06-09T05:46:32.717Z,49.99
2018-06-09T05:47:32.659Z,50.38
2018-06-09T05:48:32.606Z,50.48
2018-06-09T05:49:32.568Z,50.29
2018-06-09T05:50:32.489Z,50.02
2018-06-09T05:51:32.437Z,49.70
2018-06-09T05:52:32.382Z,49.41
2018-06-09T05:53:32.329Z,49.51
2018-06-09T05:54:32.282Z,49.24
2018-06-09T05:55:32.215Z,49.05
2018-06-09T05:56:32.163Z,49.05
2018-06-09T05:57:32.109Z,48.95
2018-06-09T05:58:32.053Z,48.85
2018-06-09T05:59:31.992Z,48.57
2018-06-09T06:00:31.939Z,48.37
2018-06-09T06:01:31.889Z,48.78
2018-06-09T06:02:31.825Z,48.59
2018-06-09T06:03:31.770Z,48.69
2018-06-09T06:04:31.725Z,48.39
2018-06-09T06:05:31.663Z,47.72
2018-06-09T06:06:31.615Z,47.55
2018-06-09T06:07:31.555Z,47.45
2018-06-09T06:08:31.496Z,46.86
2018-06-09T06:09:31.442Z,46.89
2018-06-09T06:10:31.385Z,46.69
2018-06-09T06:11:31.343Z,46.41
2018-06-09T06:12:31.275Z,45.92
2018-06-09T06:13:31.222Z,46.01
2018-06-09T06:14:31.166Z,46.11
2018-06-09T06:15:31.138Z,46.21
2018-06-09T06:16:31.058Z,46.42
2018-06-09T06:17:31.012Z,45.84
2018-06-09T06:18:30.960Z,45.55
2018-06-09T06:19:30.916Z,45.77
2018-06-09T06:20:30.842Z,45.57
2018-06-09T06:21:30.785Z,45.28
2018-06-09T06:22:30.730Z,45.48
2018-06-09T06:23:30.674Z,45.28
2018-06-09T06:24:30.623Z,45.18
2018-06-09T06:25:30.564Z,44.89
2018-06-09T06:26:30.516Z,45.09
2018-06-09T06:27:30.462Z,44.89
2018-06-09T06:28:30.406Z,44.79
2018-06-09T06:29:30.362Z,44.60
2018-06-09T06:30:30.296Z,44.51
2018-06-09T06:31:30.243Z,44.38
2018-06-09T06:32:30.220Z,44.89
2018-06-09T06:33:30.136Z,44.60
2018-06-09T06:34:30.089Z,44.58
2018-06-09T06:35:30.034Z,44.51
2018-06-09T06:36:29.974Z,44.38
2018-06-09T06:37:29.918Z,44.68
2018-06-09T06:38:29.878Z,44.70
2018-06-09T06:39:29.829Z,44.31
2018-06-09T06:40:29.760Z,44.21
2018-06-09T06:41:29.705Z,44.21
2018-06-09T06:42:29.645Z,44.31
2018-06-09T06:43:29.596Z,43.92
2018-06-09T06:44:29.544Z,43.46
2018-06-09T06:45:29.488Z,43.46
2018-06-09T06:46:29.443Z,43.46
2018-06-09T06:47:29.387Z,43.07
2018-06-09T06:48:29.328Z,42.80
2018-06-09T06:49:29.281Z,42.50
2018-06-09T06:50:29.222Z,42.31
2018-06-09T06:51:29.167Z,42.41
2018-06-09T06:52:29.114Z,42.33
2018-06-09T06:53:29.064Z,42.43
2018-06-09T06:54:29.011Z,42.43
2018-06-09T06:55:28.956Z,42.33
2018-06-09T06:56:28.900Z,41.75
2018-06-09T06:57:28.853Z,41.96
2018-06-09T06:58:28.801Z,41.96
2018-06-09T06:59:28.812Z,41.48
2018-06-09T07:00:28.707Z,42.06
2018-06-09T07:01:28.637Z,42.16
2018-06-09T07:02:28.581Z,42.06
2018-06-09T07:03:28.531Z,42.35
2018-06-09T07:04:28.475Z,41.96
2018-06-09T07:05:28.427Z,42.16
2018-06-09T07:06:28.375Z,42.16
2018-06-09T07:07:28.319Z,42.43
2018-06-09T07:08:28.265Z,41.94
2018-06-09T07:09:28.215Z,42.14
2018-06-09T07:10:28.161Z,42.24
2018-06-09T07:11:28.109Z,42.14
2018-06-09T07:12:28.058Z,42.21
2018-06-09T07:13:28.017Z,42.31
2018-06-09T07:14:27.972Z,42.50
2018-06-09T07:15:27.902Z,42.60
2018-06-09T07:16:27.848Z,42.39
2018-06-09T07:17:27.792Z,42.97
2018-06-09T07:18:27.740Z,42.97
2018-06-09T07:19:27.689Z,43.26
2018-06-09T07:20:27.634Z,43.16
2018-06-09T07:21:27.578Z,43.16
2018-06-09T07:22:27.530Z,43.46
2018-06-09T07:23:27.475Z,43.36
2018-06-09T07:24:27.423Z,43.55
2018-06-09T07:25:27.369Z,43.46
2018-06-09T07:26:27.311Z,43.55
2018-06-09T07:27:27.265Z,43.55
2018-06-09T07:28:27.211Z,43.55
2018-06-09T07:29:27.156Z,43.55
2018-06-09T07:30:27.101Z,43.46
2018-06-09T07:31:27.075Z,43.36
2018-06-09T07:32:26.996Z,43.36
2018-06-09T07:33:26.942Z,43.36
2018-06-09T07:34:26.892Z,43.46
2018-06-09T07:35:26.838Z,43.07
2018-06-09T07:36:26.785Z,42.97
2018-06-09T07:37:26.730Z,42.87
2018-06-09T07:38:26.677Z,42.97
2018-06-09T07:39:26.628Z,42.87
2018-06-09T07:40:26.572Z,43.16
2018-06-09T07:41:26.521Z,42.97
2018-06-09T07:42:26.479Z,42.97
2018-06-09T07:43:26.411Z,42.49
2018-06-09T07:44:26.358Z,42.50
2018-06-09T07:45:26.305Z,42.49
2018-06-09T07:46:26.260Z,42.70
2018-06-09T07:47:26.201Z,42.50
2018-06-09T07:48:26.147Z,42.21
2018-06-09T07:49:26.101Z,42.70
2018-06-09T07:50:26.038Z,42.70
2018-06-09T07:51:25.988Z,42.60
2018-06-09T07:52:25.934Z,42.60
2018-06-09T07:53:25.882Z,42.50
2018-06-09T07:54:25.827Z,42.31
2018-06-09T07:55:25.773Z,42.41
2018-06-09T07:56:25.719Z,42.31
2018-06-09T07:57:25.669Z,42.21
2018-06-09T07:58:25.615Z,42.31
2018-06-09T07:59:25.562Z,42.21
2018-06-09T08:00:25.511Z,42.31
2018-06-09T08:01:25.457Z,41.93
2018-06-09T08:02:25.398Z,41.83
2018-06-09T08:03:25.348Z,41.53
2018-06-09T08:04:25.293Z,41.14
2018-06-09T08:05:25.242Z,42.02
2018-06-09T08:06:25.193Z,41.53
2018-06-09T08:07:25.139Z,41.53
2018-06-09T08:08:25.082Z,41.36
2018-06-09T08:09:25.034Z,40.97
2018-06-09T08:10:24.978Z,41.14
2018-06-09T08:11:24.924Z,41.16
2018-06-09T08:12:24.872Z,41.26
2018-06-09T08:13:24.820Z,40.68
2018-06-09T08:14:24.762Z,40.68
2018-06-09T08:15:24.718Z,40.78
2018-06-09T08:16:24.663Z,40.97
2018-06-09T08:17:24.605Z,40.97
2018-06-09T08:18:24.553Z,40.48
2018-06-09T08:19:24.548Z,40.68
2018-06-09T08:20:24.447Z,40.48
2018-06-09T08:21:24.398Z,40.09
2018-06-09T08:22:24.339Z,40.09
2018-06-09T08:23:24.286Z,40.19
2018-06-09T08:24:24.234Z,40.00
2018-06-09T08:25:24.182Z,40.19
2018-06-09T08:26:24.126Z,39.70
2018-06-09T08:27:24.072Z,39.70
2018-06-09T08:28:24.036Z,39.90
2018-06-09T08:29:23.967Z,39.70
2018-06-09T08:30:23.914Z,39.70
2018-06-09T08:31:23.880Z,40.01
2018-06-09T08:32:23.809Z,39.53
2018-06-09T08:33:23.759Z,39.43
2018-06-09T08:34:23.704Z,39.62
2018-06-09T08:35:23.651Z,39.04
2018-06-09T08:36:23.628Z,38.95
2018-06-09T08:37:23.543Z,39.14
2018-06-09T08:38:23.496Z,38.95
2018-06-09T08:39:23.449Z,38.56
2018-06-09T08:40:23.387Z,38.46
2018-06-09T08:41:23.331Z,38.56
2018-06-09T08:42:23.286Z,38.36
2018-06-09T08:43:23.229Z,38.56
2018-06-09T08:44:23.176Z,38.36
2018-06-09T08:45:23.124Z,38.26
2018-06-09T08:46:23.088Z,38.38
2018-06-09T08:47:23.012Z,38.36
2018-06-09T08:48:22.962Z,38.18
2018-06-09T08:49:22.914Z,38.26
2018-06-09T08:50:22.858Z,38.07
2018-06-09T08:51:22.810Z,37.99
2018-06-09T08:52:22.753Z,37.87
2018-06-09T08:53:22.703Z,37.77
2018-06-09T08:54:22.648Z,37.77
2018-06-09T08:55:22.590Z,37.77
2018-06-09T08:56:22.542Z,37.68
2018-06-09T08:57:22.489Z,37.68
2018-06-09T08:58:22.435Z,37.87
2018-06-09T08:59:22.378Z,37.89
2018-06-09T09:00:22.351Z,37.87
2018-06-09T09:01:22.276Z,37.70
2018-06-09T09:02:22.227Z,37.60
2018-06-09T09:03:22.278Z,37.41
2018-06-09T09:04:22.123Z,37.48
2018-06-09T09:05:22.084Z,37.21
2018-06-09T09:06:22.023Z,37.12
2018-06-09T09:07:21.960Z,36.63
2018-06-09T09:08:21.910Z,36.72
2018-06-09T09:09:21.873Z,36.82
2018-06-09T09:10:21.846Z,36.72
2018-06-09T09:11:21.751Z,36.43
2018-06-09T09:12:21.707Z,36.04
2018-06-09T09:13:21.642Z,35.75
2018-06-09T09:14:21.596Z,35.46
2018-06-09T09:15:21.549Z,34.97
2018-06-09T09:16:21.489Z,35.16
2018-06-09T09:17:21.436Z,35.26
2018-06-09T09:18:21.379Z,34.99
2018-06-09T09:19:21.333Z,35.36
2018-06-09T09:20:21.278Z,35.55
2018-06-09T09:21:21.224Z,34.88
2018-06-09T09:22:21.176Z,35.06
2018-06-09T09:23:21.117Z,34.88
2018-06-09T09:24:21.069Z,34.68
2018-06-09T09:25:21.017Z,34.59
2018-06-09T09:26:20.958Z,34.40
2018-06-09T09:27:20.917Z,34.40
2018-06-09T09:28:20.859Z,34.99
2018-06-09T09:29:20.813Z,34.99
2018-06-09T09:30:20.753Z,34.99
2018-06-09T09:31:20.698Z,34.40
2018-06-09T09:32:20.655Z,34.59
2018-06-09T09:33:20.595Z,34.31
2018-06-09T09:34:20.545Z,34.40
2018-06-09T09:35:20.492Z,34.69
2018-06-09T09:36:20.443Z,34.50
2018-06-09T09:37:20.387Z,34.40
2018-06-09T09:38:20.338Z,34.40
2018-06-09T09:39:20.281Z,34.50
2018-06-09T09:40:20.229Z,34.40
2018-06-09T09:41:20.176Z,34.40
2018-06-09T09:42:20.122Z,34.99
2018-06-09T09:43:20.073Z,34.79
2018-06-09T09:44:20.029Z,34.50
2018-06-09T09:45:19.966Z,34.40
2018-06-09T09:46:19.943Z,34.59
2018-06-09T09:47:19.862Z,34.69
2018-06-09T09:48:19.810Z,34.50
2018-06-09T09:49:19.758Z,34.69
2018-06-09T09:50:19.709Z,34.59
2018-06-09T09:51:19.652Z,34.50
2018-06-09T09:52:19.598Z,34.59
2018-06-09T09:53:19.546Z,34.50
2018-06-09T09:54:19.496Z,34.59
2018-06-09T09:55:19.444Z,34.69
2018-06-09T09:56:19.395Z,34.29
2018-06-09T09:57:19.338Z,34.78
2018-06-09T09:58:19.281Z,35.25
2018-06-09T09:59:19.234Z,35.73
2018-06-09T10:00:19.185Z,36.32
2018-06-09T10:01:19.132Z,36.22
2018-06-09T10:02:19.966Z,36.61
2018-06-09T10:03:19.036Z,36.98
2018-06-09T10:04:18.973Z,37.46
2018-06-09T10:05:18.922Z,37.46
2018-06-09T10:06:18.871Z,37.76
2018-06-09T10:07:18.818Z,37.95
2018-06-09T10:08:18.779Z,38.15
2018-06-09T10:09:18.733Z,38.32
2018-06-09T10:10:18.658Z,38.32
2018-06-09T10:11:18.607Z,38.23
2018-06-09T10:12:18.549Z,37.84
2018-06-09T10:13:18.513Z,37.93
2018-06-09T10:14:18.447Z,37.64
2018-06-09T10:15:18.401Z,37.27
2018-06-09T10:16:18.342Z,36.88
2018-06-09T10:17:18.298Z,37.06
2018-06-09T10:18:18.241Z,37.06
2018-06-09T10:19:18.185Z,37.06
2018-06-09T10:20:18.136Z,36.88
2018-06-09T10:21:19.014Z,36.87
2018-06-09T10:22:18.037Z,36.77
2018-06-09T10:23:18.001Z,36.67
2018-06-09T10:24:17.924Z,36.67
2018-06-09T10:25:17.884Z,36.87
2018-06-09T10:26:17.821Z,36.67
2018-06-09T10:27:17.764Z,36.69
2018-06-09T10:28:17.711Z,36.69
2018-06-09T10:29:17.667Z,36.77
2018-06-09T10:30:17.643Z,36.79
2018-06-09T10:31:17.555Z,36.67
2018-06-09T10:32:17.540Z,36.57
2018-06-09T10:33:17.454Z,36.88
2018-06-09T10:34:17.393Z,36.79
2018-06-09T10:35:17.349Z,36.77
2018-06-09T10:36:17.289Z,36.79
2018-06-09T10:37:17.246Z,36.10
2018-06-09T10:38:17.185Z,36.57
2018-06-09T10:39:17.132Z,36.77
2018-06-09T10:40:17.080Z,36.67
2018-06-09T10:41:17.040Z,36.49
2018-06-09T10:42:16.983Z,36.57
2018-06-09T10:43:16.920Z,36.67
2018-06-09T10:44:16.870Z,36.67
2018-06-09T10:45:16.819Z,36.49
2018-06-09T10:46:16.767Z,36.00
2018-06-09T10:47:16.712Z,36.10
2018-06-09T10:48:16.660Z,36.49
2018-06-09T10:49:16.611Z,36.30
2018-06-09T10:50:16.557Z,36.59
2018-06-09T10:51:16.501Z,36.88
2018-06-09T10:52:16.456Z,36.59
2018-06-09T10:53:16.397Z,36.79
2018-06-09T10:54:16.345Z,36.38
2018-06-09T10:55:16.287Z,36.49
2018-06-09T10:56:16.239Z,36.20
2018-06-09T10:57:16.189Z,36.18
2018-06-09T10:58:16.136Z,36.30
2018-06-09T10:59:16.105Z,35.99
2018-06-09T11:00:16.034Z,36.28
2018-06-09T11:01:15.980Z,35.71
2018-06-09T11:02:15.925Z,35.41
2018-06-09T11:03:15.868Z,35.61
2018-06-09T11:04:15.823Z,35.33
2018-06-09T11:05:15.769Z,35.33
2018-06-09T11:06:15.717Z,35.42
2018-06-09T11:07:15.665Z,35.71
2018-06-09T11:08:15.611Z,35.03
2018-06-09T11:09:15.560Z,35.03
2018-06-09T11:10:15.510Z,34.74
2018-06-09T11:11:15.459Z,34.94
2018-06-09T11:12:15.408Z,34.45
2018-06-09T11:13:15.357Z,34.35
2018-06-09T11:14:15.303Z,34.55
2018-06-09T11:15:15.251Z,34.45
2018-06-09T11:16:15.204Z,34.45
2018-06-09T11:17:15.151Z,34.55
2018-06-09T11:18:15.148Z,34.55
2018-06-09T11:19:15.059Z,34.45
2018-06-09T11:20:15.013Z,34.27
2018-06-09T11:21:14.957Z,34.27
2018-06-09T11:22:14.909Z,34.08
2018-06-09T11:23:14.915Z,33.98
2018-06-09T11:24:14.812Z,34.08
2018-06-09T11:25:14.762Z,34.08
2018-06-09T11:26:14.715Z,33.98
2018-06-09T11:27:14.668Z,33.78
2018-06-09T11:28:14.624Z,33.69
2018-06-09T11:29:14.576Z,33.39
2018-06-09T11:30:14.529Z,33.01
2018-06-09T11:31:14.477Z,33.20
2018-06-09T11:32:14.436Z,33.20
2018-06-09T11:33:14.387Z,33.01
2018-06-09T11:34:14.337Z,33.20
2018-06-09T11:35:15.000Z,33.11
2018-06-09T11:36:14.251Z,33.29
2018-06-09T11:37:14.206Z,33.12
2018-06-09T11:38:14.158Z,32.55
2018-06-09T11:39:14.112Z,32.75
2018-06-09T11:40:15.006Z,32.45
2018-06-09T11:41:14.053Z,32.92
2018-06-09T11:42:14.003Z,32.94
2018-06-09T11:43:13.957Z,33.14
2018-06-09T11:44:13.899Z,33.04
2018-06-09T11:45:13.858Z,33.04
2018-06-09T11:46:13.812Z,33.04
2018-06-09T11:47:13.776Z,33.23
2018-06-09T11:48:13.727Z,33.04
2018-06-09T11:49:13.685Z,33.14
2018-06-09T11:50:13.647Z,33.25
2018-06-09T11:51:13.603Z,33.07
2018-06-09T11:52:13.557Z,32.39
2018-06-09T11:53:13.540Z,32.40
2018-06-09T11:54:13.481Z,31.93
2018-06-09T11:55:13.434Z,32.13
2018-06-09T11:56:13.391Z,31.84
2018-06-09T11:57:13.352Z,31.75
2018-06-09T11:58:13.317Z,31.75
2018-06-09T11:59:13.270Z,31.56
2018-06-09T12:00:13.227Z,31.46
2018-06-09T12:01:13.184Z,31.87
2018-06-09T12:02:13.147Z,31.56
2018-06-09T12:03:13.110Z,31.95
2018-06-09T12:04:13.069Z,32.03
2018-06-09T12:05:13.026Z,32.23
2018-06-09T12:06:12.986Z,32.13
2018-06-09T12:07:12.948Z,32.52
2018-06-09T12:08:12.907Z,31.85
2018-06-09T12:09:12.870Z,32.24
2018-06-09T12:10:12.831Z,32.03
2018-06-09T12:11:15.506Z,32.13
2018-06-09T12:12:12.749Z,31.93
2018-06-09T12:13:12.709Z,32.03
2018-06-09T12:14:12.676Z,32.21
2018-06-09T12:15:12.633Z,32.40
2018-06-09T12:16:12.595Z,32.29
2018-06-09T12:17:12.560Z,31.92
2018-06-09T12:18:12.516Z,31.99
2018-06-09T12:19:12.475Z,31.82
2018-06-09T12:20:12.438Z,31.43
2018-06-09T12:21:12.403Z,31.43
2018-06-09T12:22:12.364Z,31.43
2018-06-09T12:23:12.321Z,31.43
2018-06-09T12:24:12.283Z,31.23
2018-06-09T12:25:12.246Z,31.52
2018-06-09T12:26:12.203Z,31.15
2018-06-09T12:27:12.165Z,30.86
2018-06-09T12:28:15.012Z,30.66
2018-06-09T12:29:12.091Z,31.25
2018-06-09T12:30:12.059Z,30.86
2018-06-09T12:31:12.010Z,30.66
2018-06-09T12:32:11.991Z,30.86
2018-06-09T12:33:11.936Z,30.76
2018-06-09T12:34:11.894Z,30.66
2018-06-09T12:35:11.855Z,30.96
2018-06-09T12:36:11.821Z,30.38
2018-06-09T12:37:11.779Z,29.99
2018-06-09T12:38:11.739Z,30.59
2018-06-09T12:39:11.699Z,29.63
2018-06-09T12:40:11.660Z,29.44
2018-06-09T12:41:11.628Z,28.88
2018-06-09T12:42:11.584Z,28.29
2018-06-09T12:43:11.544Z,28.38
2018-06-09T12:44:11.507Z,28.67
2018-06-09T12:45:11.469Z,28.55
2018-06-09T12:46:11.431Z,29.14
2018-06-09T12:47:11.393Z,29.04
2018-06-09T12:48:11.354Z,28.58
2018-06-09T12:49:11.317Z,27.55
2018-06-09T12:50:11.276Z,26.79
2018-06-09T12:51:11.236Z,26.12
2018-06-09T12:52:11.203Z,26.14